Harrison, Michigan
Current Conditions -  °F | °C
As of 8:48 PM on Friday 19 Dec 2014 (Local Time) from KHTL Reporting Station
Haze Haze  
Wind Chill: -11°   Ceiling: Unl
Heat Index: -11°   Visibility: 2.5mi
Dew Point: -11°   Wind: 0mph
Humidity: 100%   Direction: NA
Pressure: 30.27"   Gusts: NA
Location:  44.02°N, 84.8°W
Report Text: KHTL 200148Z AUTO 00000KT 2 1/2SM BR FEW002 M11/M11 A3027 RMK AO2 I1001
Loading
Personal Weather Stations






























Interactive Weather Map New forecast layout! Learn more

10-Day Weather Forecast

Advertisements
Track Severe Weather on mobile